New London, MO

12:58 PM CST on March 03, 2015 (GMT -0600)
North Eastern Ralls County WB2UFO | Change Station
CLOSE
Current Station
Personal Weather Station
Location: New London, MO
Elevation: 700 ft
Nearby Weather Stations

Elev 700 ft 39.64 °N, 91.44 °W | Updated 18 seconds ago

Fog
Fog
41.0 °F
Feels Like 41 °F
N
0.0
Wind Variable Wind from WSW
Gusts 9.0 mph

Today
High -- | Low -- °F
--% Chance of Precip.
Yesterday
High -- | Low -- °F
Precip. -- in
6:35 AM 5:59 PM
Waxing Gibbous, 97% visible
Pressure 29.76 in
Visibility 3.0 miles
Clouds Overcast 500 ft
Windchill 41 °F
Dew Point 40 °F
Humidity 95%
Rainfall 0.02 in
Snow Depth Not available.
UV 2 out of 12
Pollen .60 out of 12
Air Quality Not available.
Flu Activity Not available.
METAR KHAE 031855Z AUTO 24011G16KT 3SM BR OVC005 05/03 A2976 RMK AO2

More Conditions Fewer Conditions

Pressure 29.76 in
Visibility 3.0 miles
Clouds Overcast 500 ft
Windchill 41 °F
Dew Point 40 °F
Humidity 95%
Rainfall 0.02 in
Snow Depth Not available.
UV 2 out of 12
Pollen .60 out of 12
Air Quality Not available.
Flu Activity Not available.
METAR KHAE 031855Z AUTO 24011G16KT 3SM BR OVC005 05/03 A2976 RMK AO2

More Conditions Fewer Conditions

10-Day Weather Forecast

Almanac

Astronomy

Mar. 03, 2015 Rise Set
Actual Time
Civil Twilight
Nautical Twilight
Astronomical Twilight
Moon
Length of Visible Light
Length of Day
Tomorrow will be .
, % of the Moon is Illuminated

Today's Extremes

State Highs State Lows

Community

WunderPhotos

Upload Photos

1,802,198 photos uploaded!

WunderBlogs® & News

Nearby

Air Quality

  Air Quality AQ Index Pollutant
Not available.

Snow Depth

Station Depth Elevation

Earthquake Activity

City Distance Mag. Time & Date
Minimum magnitude displayed is 2.5.

Coastal Water Temperatures

Place Temperature

Nearby Weather Stations